Carnival Conquest — 3FPQ9 — position and weather

sailwx.info

Track history (hours):
 
Tides and Currents Weather Stations Pressure Air Temp Water Temp Dewpoint Dewpoint Depression Visibility Wind Speed Wind Dir Waves Ship Positions

Carnival Conquest

Operator: Carnival Cruise Lines

Last reported at 2018-Sep-24 01:24 UTC. Time now 2018-Sep-24 21:35 UTC.
Position N 26°19' W 079°21'.

Type: Ship. MMSI: 357657000.

Date/timePositionNaut miles runAvg speedWind from/ knotsBaromVisibWave heightAir tempDewpointWater temp
2018-Sep-24 01:24N 26°19' W 079°21'3 8.1
2018-Sep-24 01:04N 26°16' W 079°22'0 7.4
2018-Sep-24 01:00N 26°16' W 079°22'3 6.3
2018-Sep-24 00:31N 26°13' W 079°23'4 8.4
2018-Sep-24 00:03N 26°12' W 079°27'0 8.7
2018-Sep-24 00:00N 26°12' W 079°28'4 8.9
2018-Sep-23 23:31N 26°11' W 079°33'4 8.9
2018-Sep-23 23:02N 26°10' W 079°37'0 8.8
2018-Sep-23 23:00N 26°10' W 079°38'4 8.8
2018-Sep-23 22:30N 26°09' W 079°42'4 8.6
2018-Sep-23 22:03N 26°09' W 079°47'0 8.4
2018-Sep-23 22:00N 26°09' W 079°47'5 9.1
2018-Sep-23 21:30N 26°08' W 079°52'511.8
2018-Sep-23 21:03N 26°07' W 079°58'011.3
2018-Sep-23 21:00N 26°07' W 079°58'611.4
2018-Sep-23 20:30N 26°06' W 080°05'2 4.4
2018-Sep-23 19:58N 26°06' W 080°07'0 0.0
2018-Sep-23 19:28N 26°06' W 080°07'0 0.0
2018-Sep-23 18:58N 26°06' W 080°07'0 0.0
2018-Sep-23 18:28N 26°06' W 080°07'0 0.0
2018-Sep-23 17:58N 26°06' W 080°07'0 0.0
2018-Sep-23 17:28N 26°06' W 080°07'0 0.0
2018-Sep-23 16:58N 26°06' W 080°07'0 0.0
2018-Sep-23 16:28N 26°06' W 080°07'0 0.0
2018-Sep-23 15:58N 26°06' W 080°07'0 0.0
2018-Sep-23 15:28N 26°06' W 080°07'0 0.0
2018-Sep-23 14:58N 26°06' W 080°07'0 0.0
2018-Sep-23 13:58N 26°06' W 080°07'0 0.0
2018-Sep-23 13:28N 26°06' W 080°07'0 0.0
2018-Sep-23 12:58N 26°06' W 080°07'0 0.0
2018-Sep-23 12:28N 26°06' W 080°07'0 0.0
2018-Sep-23 11:58N 26°06' W 080°07'0 0.0
2018-Sep-23 11:28N 26°06' W 080°07'0 0.0
2018-Sep-23 10:58N 26°06' W 080°07'0 0.0
2018-Sep-23 10:28N 26°06' W 080°07'0 0.0
2018-Sep-23 09:58N 26°06' W 080°07'0 0.0
2018-Sep-23 09:28N 26°06' W 080°07'0 0.0
2018-Sep-23 08:58N 26°06' W 080°07'0 0.4
2018-Sep-23 08:30N 26°06' W 080°07'3 7.7
2018-Sep-23 08:03N 26°06' W 080°03'112.5
2018-Sep-23 08:00N 26°06' W 080°03'815.1
2018-Sep-23 07:30N 26°01' W 079°56'920.7
2018-Sep-23 07:03N 25°54' W 079°49'120.4
2018-Sep-23 07:00N 25°53' W 079°48'1020.4
2018-Sep-23 06:30N 25°46' W 079°41'1021.1
2018-Sep-23 06:03N 25°36' W 079°38'121.2
2018-Sep-23 06:00N 25°35' W 079°38'1120.8
2018-Sep-23 05:30N 25°25' W 079°36'  
2018-Sep-18 11:00N 19°24' W 068°48'   110 / 191015.7 5.4 29.023.529.0
2018-Sep-15 23:39N 26°15' W 078°58'421.1
2018-Sep-15 23:28N 26°15' W 079°03'921.7
2018-Sep-15 23:03N 26°14' W 079°12'722.1
2018-Sep-15 22:46N 26°12' W 079°19'521.5
2018-Sep-15 22:30N 26°11' W 079°25'920.1
2018-Sep-15 22:03N 26°11' W 079°35'120.7
2018-Sep-15 22:00N 26°11' W 079°36'1020.9
2018-Sep-15 21:30N 26°09' W 079°48'919.4
2018-Sep-15 21:03N 26°07' W 079°57'117.3
2018-Sep-15 21:00N 26°07' W 079°59'713.7
2018-Sep-15 20:30N 26°06' W 080°06'1 2.8
2018-Sep-15 20:02N 26°06' W 080°07'0 0.0
2018-Sep-15 19:53N 26°06' W 080°07'0 0.0
2018-Sep-15 19:23N 26°06' W 080°07'0 0.0
2018-Sep-15 18:59N 26°06' W 080°07'0 0.0
2018-Sep-15 18:26N 26°06' W 080°07'0 0.0
2018-Sep-15 17:59N 26°06' W 080°07'0 0.0
2018-Sep-15 17:26N 26°06' W 080°07'0 0.0
2018-Sep-15 17:02N 26°06' W 080°07'0 0.0
2018-Sep-15 16:56N 26°06' W 080°07'0 0.0
2018-Sep-15 16:26N 26°06' W 080°07'0 0.0
2018-Sep-15 15:59N 26°06' W 080°07'0 0.0
2018-Sep-15 15:29N 26°06' W 080°07'0 0.0
2018-Sep-15 14:59N 26°06' W 080°07'0 0.0
2018-Sep-15 13:59N 26°06' W 080°07'0 0.0
2018-Sep-15 13:29N 26°06' W 080°07'0 0.0
2018-Sep-15 13:02N 26°06' W 080°07'0 0.0
2018-Sep-15 12:59N 26°06' W 080°07'0 0.0
2018-Sep-15 12:29N 26°06' W 080°07'0 0.0
2018-Sep-15 12:02N 26°06' W 080°07'0 0.0
2018-Sep-15 11:59N 26°06' W 080°07'0 0.0
2018-Sep-15 11:23N 26°06' W 080°07'0 0.0
2018-Sep-15 11:02N 26°06' W 080°07'0 0.0
2018-Sep-15 10:59N 26°06' W 080°07'0 0.0
2018-Sep-15 10:29N 26°06' W 080°07'0 0.2
2018-Sep-15 10:04N 26°06' W 080°07'0 1.3
2018-Sep-15 10:00N 26°06' W 080°07'4 7.3
2018-Sep-15 09:30N 26°06' W 080°03'612.7
2018-Sep-15 09:03N 26°02' W 079°58'115.5
2018-Sep-15 09:01N 26°02' W 079°57'713.3
2018-Sep-15 08:31N 25°57' W 079°52'919.7
2018-Sep-15 08:03N 25°50' W 079°46'120.7
2018-Sep-15 08:00N 25°49' W 079°45'1020.4
2018-Sep-15 07:30N 25°40' W 079°40'920.7
2018-Sep-15 07:04N 25°31' W 079°38'120.4
2018-Sep-15 07:00N 25°30' W 079°38'35917.9
2018-Sep-14 11:00N 21°12' W 075°06'   080 / 131013.710.8 28.022.429.0
Track history (hours):
 
Tides and Currents Weather Stations Pressure Air Temp Water Temp Dewpoint Dewpoint Depression Visibility Wind Speed Wind Dir Waves Ship Positions

Carnival Conquest

Operator: Carnival Cruise Lines

Last reported at 2018-Sep-24 01:24 UTC. Time now 2018-Sep-24 21:35 UTC.
Position N 26°19' W 079°21'.

Type: Ship. MMSI: 357657000.

Date/timePositionNaut miles runAvg speedWind from/ knotsBaromVisibWave heightAir tempDewpointWater temp
2018-Sep-24 01:24N 26°19' W 079°21'3 8.1
2018-Sep-24 01:04N 26°16' W 079°22'0 7.4
2018-Sep-24 01:00N 26°16' W 079°22'3 6.3
2018-Sep-24 00:31N 26°13' W 079°23'4 8.4
2018-Sep-24 00:03N 26°12' W 079°27'0 8.7
2018-Sep-24 00:00N 26°12' W 079°28'4 8.9
2018-Sep-23 23:31N 26°11' W 079°33'4 8.9
2018-Sep-23 23:02N 26°10' W 079°37'0 8.8
2018-Sep-23 23:00N 26°10' W 079°38'4 8.8
2018-Sep-23 22:30N 26°09' W 079°42'4 8.6
2018-Sep-23 22:03N 26°09' W 079°47'0 8.4
2018-Sep-23 22:00N 26°09' W 079°47'5 9.1
2018-Sep-23 21:30N 26°08' W 079°52'511.8
2018-Sep-23 21:03N 26°07' W 079°58'011.3
2018-Sep-23 21:00N 26°07' W 079°58'611.4
2018-Sep-23 20:30N 26°06' W 080°05'2 4.4
2018-Sep-23 19:58N 26°06' W 080°07'0 0.0
2018-Sep-23 19:28N 26°06' W 080°07'0 0.0
2018-Sep-23 18:58N 26°06' W 080°07'0 0.0
2018-Sep-23 18:28N 26°06' W 080°07'0 0.0
2018-Sep-23 17:58N 26°06' W 080°07'0 0.0
2018-Sep-23 17:28N 26°06' W 080°07'0 0.0
2018-Sep-23 16:58N 26°06' W 080°07'0 0.0
2018-Sep-23 16:28N 26°06' W 080°07'0 0.0
2018-Sep-23 15:58N 26°06' W 080°07'0 0.0
2018-Sep-23 15:28N 26°06' W 080°07'0 0.0
2018-Sep-23 14:58N 26°06' W 080°07'0 0.0
2018-Sep-23 13:58N 26°06' W 080°07'0 0.0
2018-Sep-23 13:28N 26°06' W 080°07'0 0.0
2018-Sep-23 12:58N 26°06' W 080°07'0 0.0
2018-Sep-23 12:28N 26°06' W 080°07'0 0.0
2018-Sep-23 11:58N 26°06' W 080°07'0 0.0
2018-Sep-23 11:28N 26°06' W 080°07'0 0.0
2018-Sep-23 10:58N 26°06' W 080°07'0 0.0
2018-Sep-23 10:28N 26°06' W 080°07'0 0.0
2018-Sep-23 09:58N 26°06' W 080°07'0 0.0
2018-Sep-23 09:28N 26°06' W 080°07'0 0.0
2018-Sep-23 08:58N 26°06' W 080°07'0 0.4
2018-Sep-23 08:30N 26°06' W 080°07'3 7.7
2018-Sep-23 08:03N 26°06' W 080°03'112.5
2018-Sep-23 08:00N 26°06' W 080°03'815.1
2018-Sep-23 07:30N 26°01' W 079°56'920.7
2018-Sep-23 07:03N 25°54' W 079°49'120.4
2018-Sep-23 07:00N 25°53' W 079°48'1020.4
2018-Sep-23 06:30N 25°46' W 079°41'1021.1
2018-Sep-23 06:03N 25°36' W 079°38'121.2
2018-Sep-23 06:00N 25°35' W 079°38'1120.8
2018-Sep-23 05:30N 25°25' W 079°36'  
2018-Sep-18 11:00N 19°24' W 068°48'   110 / 191015.7 5.4 29.023.529.0
2018-Sep-15 23:39N 26°15' W 078°58'421.1
2018-Sep-15 23:28N 26°15' W 079°03'921.7
2018-Sep-15 23:03N 26°14' W 079°12'722.1
2018-Sep-15 22:46N 26°12' W 079°19'521.5
2018-Sep-15 22:30N 26°11' W 079°25'920.1
2018-Sep-15 22:03N 26°11' W 079°35'120.7
2018-Sep-15 22:00N 26°11' W 079°36'1020.9
2018-Sep-15 21:30N 26°09' W 079°48'919.4
2018-Sep-15 21:03N 26°07' W 079°57'117.3
2018-Sep-15 21:00N 26°07' W 079°59'713.7
2018-Sep-15 20:30N 26°06' W 080°06'1 2.8
2018-Sep-15 20:02N 26°06' W 080°07'0 0.0
2018-Sep-15 19:53N 26°06' W 080°07'0 0.0
2018-Sep-15 19:23N 26°06' W 080°07'0 0.0
2018-Sep-15 18:59N 26°06' W 080°07'0 0.0
2018-Sep-15 18:26N 26°06' W 080°07'0 0.0
2018-Sep-15 17:59N 26°06' W 080°07'0 0.0
2018-Sep-15 17:26N 26°06' W 080°07'0 0.0
2018-Sep-15 17:02N 26°06' W 080°07'0 0.0
2018-Sep-15 16:56N 26°06' W 080°07'0 0.0
2018-Sep-15 16:26N 26°06' W 080°07'0 0.0
2018-Sep-15 15:59N 26°06' W 080°07'0 0.0
2018-Sep-15 15:29N 26°06' W 080°07'0 0.0
2018-Sep-15 14:59N 26°06' W 080°07'0 0.0
2018-Sep-15 13:59N 26°06' W 080°07'0 0.0
2018-Sep-15 13:29N 26°06' W 080°07'0 0.0
2018-Sep-15 13:02N 26°06' W 080°07'0 0.0
2018-Sep-15 12:59N 26°06' W 080°07'0 0.0
2018-Sep-15 12:29N 26°06' W 080°07'0 0.0
2018-Sep-15 12:02N 26°06' W 080°07'0 0.0
2018-Sep-15 11:59N 26°06' W 080°07'0 0.0
2018-Sep-15 11:23N 26°06' W 080°07'0 0.0
2018-Sep-15 11:02N 26°06' W 080°07'0 0.0
2018-Sep-15 10:59N 26°06' W 080°07'0 0.0
2018-Sep-15 10:29N 26°06' W 080°07'0 0.2
2018-Sep-15 10:04N 26°06' W 080°07'0 1.3
2018-Sep-15 10:00N 26°06' W 080°07'4 7.3
2018-Sep-15 09:30N 26°06' W 080°03'612.7
2018-Sep-15 09:03N 26°02' W 079°58'115.5
2018-Sep-15 09:01N 26°02' W 079°57'713.3
2018-Sep-15 08:31N 25°57' W 079°52'919.7
2018-Sep-15 08:03N 25°50' W 079°46'120.7
2018-Sep-15 08:00N 25°49' W 079°45'1020.4
2018-Sep-15 07:30N 25°40' W 079°40'920.7
2018-Sep-15 07:04N 25°31' W 079°38'120.4
2018-Sep-15 07:00N 25°30' W 079°38'35917.9
2018-Sep-14 11:00N 21°12' W 075°06'   080 / 131013.710.8 28.022.429.0

Dump ship's entire track history